Home > Products > Valid Products > MTR

000
SAUS41 KOKX 262355
MTRMTP
METAR KMTP 262354Z AUTO 03014G24KT 06/04 A2964 RMK AO1 PK WND
03033/2307 SLP036 P0002 60076 T00610044 10061 20050 56048





000
SAUS41 KOKX 262352
MTRNYC
METAR KNYC 262351Z AUTO 35008G18KT 290V070 5SM BR BKN008 OVC027
02/00 A2980 RMK AO2 RAE02UPB02E30 SLP083 P0003 60043 I6000 T00220000
10028 20011 58006 $





000
SAUS41 KOKX 262302
MTRNYC
SPECI KNYC 262301Z AUTO 36007G16KT 3SM -RA BR BKN008 OVC015 02/01
A2982 RMK AO2 P0001 T00220006 $





000
SAUS41 KOKX 262255
MTRMTP
METAR KMTP 262254Z AUTO 03016G29KT 05/03 A2967 RMK AO1 PK WND
02031/2237 PRESFR SLP047 P0016 T00500033





000
SAUS41 KOKX 262253
MTRNYC
METAR KNYC 262251Z AUTO 03007KT 340V070 2 1/2SM -RA BR OVC009 02/01
A2981 RMK AO2 PK WND 04027/2153 UPE03B21E44RAB03 CIG 006V010 SLP087
P0005 T00220006 $





000
SAUS41 KOKX 262249
MTRNYC
SPECI KNYC 262248Z AUTO 03008KT 350V090 3SM -RA BR OVC009 02/01
A2981 RMK AO2 PK WND 04027/2153 UPE03B21E44RAB03 CIG 006V012 P0005 $





000
SAUS41 KOKX 262156
MTRMTP
METAR KMTP 262154Z AUTO 03016G28KT 05/03 A2973 RMK AO1 PK WND
02029/2128 PRESFR SLP067 P0014 T00500033





000
SAUS41 KOKX 262156
MTRMTP
METAR KMTP 262154Z AUTO 03016G28KT 05/03 A2973 RMK AO1 PK WND
02029/2128 PRESFR SLP067 P0014 T00500033





000
SAUS41 KOKX 262153
MTRNYC
METAR KNYC 262151Z AUTO 02016G29KT 6SM UP BR BKN012 OVC019 03/01
A2982 RMK AO2 PK WND 03029/2149 RAE47UPB08E13B23 SLP089 P0005
T00280006 $





000
SAUS41 KOKX 262153
MTRNYC
METAR KNYC 262151Z AUTO 02016G29KT 6SM UP BR BKN012 OVC019 03/01
A2982 RMK AO2 PK WND 03029/2149 RAE47UPB08E13B23 SLP089 P0005
T00280006 $





000
SAUS41 KOKX 262114
MTRNYC
SPECI KNYC 262113Z AUTO 03015G23KT 350V070 4SM -RA BR OVC010 02/00
A2982 RMK AO2 UPB08E13 CIG 008V013 P0003 T00220000 $





000
SAUS41 KOKX 262055
MTRMTP
METAR KMTP 262054Z AUTO 03018G28KT 05/03 A2978 RMK AO1 PK WND
02029/2036 SLP084 P0009 60044 T00500033 58058





000
SAUS41 KOKX 262052
MTRNYC
METAR KNYC 262051Z AUTO 02013G19KT 4SM -RA BR OVC009 02/00 A2985 RMK
AO2 RAE1957B13UPB1957E13 CIG 007V012 SLP099 P0006 60030 I3000
T00220000 56034 $





000
SAUS41 KOKX 262037
MTRNYC
SPECI KNYC 262036Z AUTO 03012G20KT 330V050 3SM -RA BR OVC011 02/00
A2986 RMK AO2 RAE1957B13UPB1957E13 P0005 T00220000 $





000
SAUS41 KOKX 262022
MTRNYC
SPECI KNYC 262021Z AUTO 05008G17KT 2 1/2SM RA BR BKN011 OVC021 02/00
A2988 RMK AO2 RAE1957B13UPB1957E13 P0002 T00220000 $





000
SAUS41 KOKX 261955
MTRMTP
METAR KMTP 261954Z AUTO 02019G30KT 05/03 A2986 RMK AO1 PK WND
01030/1949 SLP110 P0024 T00500033





000
SAUS41 KOKX 261953
MTRNYC
METAR KNYC 261951Z AUTO 05011G20KT 4SM -RA BR OVC009 02/00 A2987 RMK
AO2 RAB1858SNE1858 CIG 007V014 PRESFR SLP107 P0011 T00220000 $





000
SAUS41 KOKX 261949
MTRNYC
SPECI KNYC 261947Z AUTO 05007G20KT 4SM -RA BR OVC009 02/00 A2988 RMK
AO2 RAB1858SNE1858 CIG 007V014 PRESFR P0011 $





000
SAUS41 KOKX 261939
MTRNYC
SPECI KNYC 261937Z AUTO 05007G18KT 360V100 2 1/2SM RA BR OVC008
02/00 A2990 RMK AO2 RAB1858SNE1858 CIG 007V011 PRESFR P0009
T00220000 $





000
SAUS41 KOKX 261923
MTRNYC
SPECI KNYC 261921Z AUTO 03008G14KT 360V060 3SM -RA BR OVC008 02/00
A2994 RMK AO2 RAB1858SNE1858 CIG 006V012 P0006 T00170000 $





000
SAUS41 KOKX 261855
MTRMTP
METAR KMTP 261854Z AUTO 02015G27KT 05/03 A2992 RMK AO1 PK WND
02027/1849 SLP130 P0011 T00500033





000
SAUS41 KOKX 261852
MTRNYC
METAR KNYC 261851Z AUTO 04007G16KT 360V070 1 1/4SM -SN BR OVC006
01/M01 A2995 RMK AO2 RAB05E14B36E46UPB35E36SNE35B46 PRESFR SLP133
P0013 I1000 T00111006 $





000
SAUS41 KOKX 261755
MTRMTP
METAR KMTP 261754Z AUTO 03013G22KT 06/04 A2995 RMK AO1 SLP142 P0013
60031 T00610044 10083 20056 58049





000
SAUS41 KOKX 261752
MTRNYC
METAR KNYC 261751Z AUTO 03005KT 1 1/4SM -SN BR OVC007 02/M01 A3004
RMK AO2 RAE1654B10E36SNB1654E10B36 SLP165 P0014 60069 T00171006
10061 20011 55033 $





000
SAUS41 KOKX 261655
MTRMTP
METAR KMTP 261654Z AUTO 02013G21KT 06/04 A3004 RMK AO1 SLP173 P0008
T00610039





000
SAUS41 KOKX 261653
MTRNYC
METAR KNYC 261651Z AUTO 06008KT 1 1/4SM RA BR OVC005 01/M01 A3004
RMK AO2 UPB29E41RAB51SNE29B41E51 SLP164 P0012 T00111006 $





000
SAUS41 KOKX 261623
MTRNYC
SPECI KNYC 261622Z AUTO 03005KT 1 1/4SM -SN BR OVC006 01/M01 A3007
RMK AO2 P0007 T00111006 $





000
SAUS41 KOKX 261602
MTRNYC
SPECI KNYC 261601Z AUTO 06007KT 030V090 3/4SM -SN BR OVC008 01/M01
A3011 RMK AO2 PRESFR P0002 T00111006 $





000
SAUS41 KOKX 261555
MTRMTP
METAR KMTP 261554Z AUTO 04011G18KT 06/03 A3008 RMK AO1 SLP186 P0004
T00610033





000
SAUS41 KOKX 261553
MTRNYC
METAR KNYC 261551Z AUTO 06007KT 1SM -SN BR OVC009 02/M01 A3013 RMK
AO2 RAE29SNB29 SLP195 P0011 T00171006 $





000
SAUS41 KOKX 261456
MTRMTP
METAR KMTP 261454Z AUTO 05012G20KT 07/03 A3010 RMK AO1 SLP191 P0001
60006 T00670028 58020





000
SAUS41 KOKX 261453
MTRNYC
METAR KNYC 261451Z AUTO 04006KT 1 1/4SM RA BR OVC008 02/01 A3014 RMK
AO2 SLP198 P0014 60032 T00220006 56014 $





000
SAUS41 KOKX 261448
MTRNYC
SPECI KNYC 261447Z AUTO 04003KT 1 1/4SM -RA BR OVC008 02/01 A3015
RMK AO2 P0014 $





000
SAUS41 KOKX 261428
MTRNYC
SPECI KNYC 261427Z AUTO 05007KT 1 3/4SM -RA BR OVC010 03/01 A3015
RMK AO2 P0009 T00280006 $





000
SAUS41 KOKX 261406
MTRNYC
SPECI KNYC 261404Z AUTO 05008KT 2 1/2SM RA BR BKN012 OVC017 03/01
A3014 RMK AO2 P0003 T00330011 $





000
SAUS41 KOKX 261355
MTRMTP
METAR KMTP 261354Z AUTO 03005KT 07/02 A3016 RMK AO1 SLP212 P0003
T00720022





000
SAUS41 KOKX 261353
MTRNYC
METAR KNYC 261351Z AUTO 06009G17KT 020V090 3SM RA BR BKN012 OVC019
03/01 A3012 RMK AO2 SLP192 P0010 T00330011 $





000
SAUS41 KOKX 261337
MTRNYC
SPECI KNYC 261335Z AUTO 04007KT 360V070 4SM -RA BR BKN014 OVC019
04/02 A3013 RMK AO2 P0008 T00390017 $





000
SAUS41 KOKX 261306
MTRNYC
SPECI KNYC 261304Z AUTO 05010G15KT 4SM -RA FEW017 OVC028 04/02 A3016
RMK AO2 P0002 T00440017 $





000
SAUS41 KOKX 261255
MTRMTP
METAR KMTP 261254Z AUTO 03004KT 08/03 A3017 RMK AO1 PRESRR SLP215
P0002 T00780028





000
SAUS41 KOKX 261253
MTRNYC
METAR KNYC 261251Z AUTO 06007KT 6SM RA OVC032 04/02 A3018 RMK AO2
SLP213 P0008 T00440017 $





000
SAUS41 KOKX 261155
MTRMTP
METAR KMTP 261154Z AUTO 02007KT 08/02 A3015 RMK AO1 SLP211 P0002
60002 70002 T00780022 10106 20078 55015





000
SAUS41 KOKX 261152
MTRNYC
METAR KNYC 261151Z AUTO 04007G16KT 010V080 8SM -RA OVC046 06/00
A3017 RMK AO2 RAB22 SLP207 P0001 60001 70001 T00610000 10106 20061
55009 $





000
SAUS41 KOKX 261055
MTRMTP
METAR KMTP 261054Z AUTO 01009KT 09/02 A3015 RMK AO1 SLP208 T00940017





000
SAUS41 KOKX 261052
MTRNYC
METAR KNYC 261051Z AUTO 06007KT 10SM FEW060 BKN075 OVC095 08/M01
A3013 RMK AO2 SLP195 T00781006 $





000
SAUS41 KOKX 260955
MTRMTP
METAR KMTP 260954Z AUTO 36008KT 10/00 A3015 RMK AO1 SLP207 T01000000





000
SAUS41 KOKX 260955
MTRMTP
METAR KMTP 260954Z AUTO 36008KT 10/00 A3015 RMK AO1 SLP207 T01000000





000
SAUS41 KOKX 260952
MTRNYC
METAR KNYC 260951Z AUTO VRB06KT 10SM FEW090 OVC110 09/M02 A3014 RMK
AO2 SLP198 T00891022 $





000
SAUS41 KOKX 260952
MTRNYC
METAR KNYC 260951Z AUTO VRB06KT 10SM FEW090 OVC110 09/M02 A3014 RMK
AO2 SLP198 T00891022 $





000
SAUS41 KOKX 260855
MTRMTP
METAR KMTP 260854Z AUTO 32009KT 11/01 A3020 RMK AO1 SLP225 T01060006
51015





000
SAUS41 KOKX 260852
MTRNYC
METAR KNYC 260851Z AUTO VRB04KT 10SM OVC110 10/M03 A3019 RMK AO2
PRESFR SLP216 T01001028 50007 $





000
SAUS41 KOKX 260755
MTRMTP
METAR KMTP 260754Z AUTO 30006KT 11/02 A3018 RMK AO1 SLP219 T01060022





000
SAUS41 KOKX 260752
MTRNYC
METAR KNYC 260751Z AUTO VRB03KT 10SM BKN120 10/M03 A3022 RMK AO2
SLP227 T01001028 $





000
SAUS41 KOKX 260655
MTRMTP
METAR KMTP 260654Z AUTO 27003KT 11/04 A3018 RMK AO1 SLP219 T01060044





000
SAUS41 KOKX 260652
MTRNYC
METAR KNYC 260651Z AUTO 29005KT 10SM CLR 11/M03 A3019 RMK AO2 SLP216
T01061028 $





000
SAUS41 KOKX 260555
MTRMTP
METAR KMTP 260554Z AUTO 28004KT 11/04 A3015 RMK AO1 SLP210 T01060044
10111 20106 50009





000
SAUS41 KOKX 260553
MTRNYC
METAR KNYC 260551Z AUTO VRB04KT 10SM CLR 11/M03 A3017 RMK AO2 SLP209
T01061028 10111 20106 50007 $





000
SAUS41 KOKX 260455
MTRMTP
METAR KMTP 260454Z AUTO 27006KT 11/03 A3015 RMK AO1 SLP211 T01060028
401670106





000
SAUS41 KOKX 260452
MTRNYC
METAR KNYC 260451Z AUTO VRB05KT 10SM CLR 11/M03 A3018 RMK AO2 SLP212
T01061028 402000106 $





000
SAUS41 KOKX 260355
MTRMTP
METAR KMTP 260354Z AUTO 25004KT 11/02 A3014 RMK AO1 SLP205 T01060017





000
SAUS41 KOKX 260355
MTRMTP
METAR KMTP 260354Z AUTO 25004KT 11/02 A3014 RMK AO1 SLP205 T01060017





000
SAUS41 KOKX 260352
MTRNYC
METAR KNYC 260351Z AUTO VRB06KT 10SM CLR 11/M02 A3018 RMK AO2 SLP210
T01061022 $





000
SAUS41 KOKX 260352
MTRNYC
METAR KNYC 260351Z AUTO VRB06KT 10SM CLR 11/M02 A3018 RMK AO2 SLP210
T01061022 $





000
SAUS41 KOKX 260255
MTRMTP
METAR KMTP 260254Z AUTO 24004KT 11/02 A3013 RMK AO1 SLP201 T01060017
51026





000
SAUS41 KOKX 260252
MTRNYC
METAR KNYC 260251Z AUTO 28007KT 10SM CLR 11/M02 A3015 RMK AO2 SLP202
T01061022 51024 $





000
SAUS41 KOKX 260155
MTRMTP
METAR KMTP 260154Z AUTO 24004KT 11/01 A3011 RMK AO1 SLP194 T01110006





000
SAUS41 KOKX 260153
MTRNYC
METAR KNYC 260151Z AUTO VRB04KT 10SM CLR 11/M02 A3014 RMK AO2 SLP198
T01111017 $





000
SAUS41 KOKX 260055
MTRMTP
METAR KMTP 260054Z AUTO 22004KT 11/01 A3010 RMK AO1 SLP191 T01060011





000
SAUS41 KOKX 260053
MTRNYC
METAR KNYC 260051Z AUTO 28005KT 10SM CLR 11/M02 A3011 RMK AO2 SLP186
T01111017 $





000
SAUS41 KOKX 252355
MTRMTP
METAR KMTP 252354Z AUTO 25004KT 11/01 A3005 RMK AO1 SLP175 T01110011
10139 20111 51018





000
SAUS41 KOKX 252352
MTRNYC
METAR KNYC 252351Z AUTO 10SM CLR 11/M02 A3008 RMK AO2 SLP177
T01111022 10128 20106 53018 $





000
SAUS41 KOKX 252255
MTRMTP
METAR KMTP 252254Z AUTO VRB05KT 12/01 A3004 RMK AO1 SLP171 T01170006





000
SAUS41 KOKX 252252
MTRNYC
METAR KNYC 252251Z AUTO VRB04KT 10SM CLR 12/M03 A3006 RMK AO2 SLP171
T01171028 $





000
SAUS41 KOKX 252155
MTRMTP
METAR KMTP 252154Z AUTO 23004KT 12/01 A3003 RMK AO1 SLP168 T01220006





000
SAUS41 KOKX 252155
MTRMTP
METAR KMTP 252154Z AUTO 23004KT 12/01 A3003 RMK AO1 SLP168 T01220006





000
SAUS41 KOKX 252153
MTRNYC
METAR KNYC 252151Z AUTO 27008KT 10SM CLR 12/M02 A3005 RMK AO2 SLP165
T01171022 $





000
SAUS41 KOKX 252153
MTRNYC
METAR KNYC 252151Z AUTO 27008KT 10SM CLR 12/M02 A3005 RMK AO2 SLP165
T01171022 $





000
SAUS41 KOKX 252055
MTRMTP
METAR KMTP 252054Z AUTO 24006KT 12/02 A3000 RMK AO1 SLP157 T01220017
53011





000
SAUS41 KOKX 252053
MTRNYC
METAR KNYC 252051Z AUTO 00000KT 10SM CLR 12/M03 A3003 RMK AO2 SLP160
T01221028 53005 $





000
SAUS41 KOKX 251955
MTRMTP
METAR KMTP 251954Z AUTO 25005KT 13/02 A2998 RMK AO1 SLP152 T01280022





000
SAUS41 KOKX 251953
MTRNYC
METAR KNYC 251951Z AUTO 24003KT 10SM CLR 12/M03 A3001 RMK AO2 SLP153
T01221028 $





000
SAUS41 KOKX 251855
MTRMTP
METAR KMTP 251854Z AUTO 26009KT 13/04 A2997 RMK AO1 SLP149 T01280039





000
SAUS41 KOKX 251853
MTRNYC
METAR KNYC 251851Z AUTO 00000KT 10SM CLR 12/M03 A3001 RMK AO2 SLP153
T01221033 $





000
SAUS41 KOKX 251755
MTRMTP
METAR KMTP 251754Z AUTO 26009G18KT 13/03 A2996 RMK AO1 SLP146
T01330033 10167 20133 50008





000
SAUS41 KOKX 251752
MTRNYC
METAR KNYC 251751Z AUTO 29004KT 10SM BKN060 13/M03 A3001 RMK AO2
SLP154 T01281033 10167 20128 58000 $





000
SAUS41 KOKX 251655
MTRMTP
METAR KMTP 251654Z AUTO 25007G15KT 14/05 A2997 RMK AO1 SLP147
T01440050





000
SAUS41 KOKX 251655
MTRMTP
METAR KMTP 251654Z AUTO 25007G15KT 14/05 A2997 RMK AO1 SLP147
T01440050





000
SAUS41 KOKX 251652
MTRNYC
METAR KNYC 251651Z AUTO 28008G17KT 10SM CLR 13/M04 A3001 RMK AO2
SLP153 T01281039 $





000
SAUS41 KOKX 251652
MTRNYC
METAR KNYC 251651Z AUTO 28008G17KT 10SM CLR 13/M04 A3001 RMK AO2
SLP153 T01281039 $





000
SAUS41 KOKX 251555
MTRMTP
METAR KMTP 251554Z AUTO 27007KT 14/08 A2997 RMK AO1 SLP147 T01440078





000
SAUS41 KOKX 251553
MTRNYC
METAR KNYC 251551Z AUTO 28009KT 10SM CLR 13/M03 A3003 RMK AO2 SLP158
T01281033 $





000
SAUS41 KOKX 251455
MTRMTP
METAR KMTP 251454Z AUTO 26007KT 16/11 A2994 RMK AO1 SLP138 T01560106
51018





000
SAUS41 KOKX 251452
MTRNYC
METAR KNYC 251451Z AUTO 28008KT 10SM SCT065 14/M01 A3002 RMK AO2
SLP155 T01391006 53032 $





000
SAUS41 KOKX 251355
MTRMTP
METAR KMTP 251354Z AUTO 25007KT 16/12 A2993 RMK AO1 SLP136 T01610117





000
SAUS41 KOKX 251353
MTRNYC
METAR KNYC 251351Z AUTO VRB05KT 10SM SCT060 14/01 A2998 RMK AO2
SLP142 T01440006 $





000
SAUS41 KOKX 251256
MTRMTP
METAR KMTP 251254Z AUTO 24004KT 16/13 A2990 RMK AO1 SLP124 T01560133





000
SAUS41 KOKX 251253
MTRNYC
METAR KNYC 251251Z AUTO VRB04G15KT 10SM FEW060 15/01 A2996 RMK AO2
SLP135 T01500006 $





000
SAUS41 KOKX 251155
MTRMTP
METAR KMTP 251154Z AUTO 23006KT 15/14 A2989 RMK AO1 SLP120 70026
T01500139 10150 20139 51029





000
SAUS41 KOKX 251152
MTRNYC
METAR KNYC 251151Z AUTO VRB04KT 10SM CLR 16/04 A2992 RMK AO2 SLP123
70002 T01610044 10200 20161 51033 $





000
SAUS41 KOKX 251055
MTRMTP
METAR KMTP 251054Z AUTO 23009KT 15/14 A2986 RMK AO1 SLP112 T01500139





000
SAUS41 KOKX 251055
MTRMTP
METAR KMTP 251054Z AUTO 23009KT 15/14 A2986 RMK AO1 SLP112 T01500139





000
SAUS41 KOKX 251053
MTRNYC
METAR KNYC 251051Z AUTO 27003KT 10SM CLR 17/06 A2989 RMK AO2 SLP113
T01720061 $





000
SAUS41 KOKX 251053
MTRNYC
METAR KNYC 251051Z AUTO 27003KT 10SM CLR 17/06 A2989 RMK AO2 SLP113
T01720061 $





000
SAUS41 KOKX 250955
MTRMTP
METAR KMTP 250954Z AUTO 23010G21KT 15/14 A2985 RMK AO1 SLP107
T01500139





000
SAUS41 KOKX 250952
MTRNYC
METAR KNYC 250951Z AUTO VRB04KT 10SM CLR 18/10 A2986 RMK AO2 SLP103
T01780100 $





000
SAUS41 KOKX 250855
MTRMTP
METAR KMTP 250854Z AUTO 23013G21KT 15/14 A2980 RMK AO1 SLP091
T01500139 51002





000
SAUS41 KOKX 250853
MTRNYC
METAR KNYC 250851Z AUTO VRB03KT 10SM CLR 18/12 A2982 RMK AO2 SLP089
T01780122 53017 $





000
SAUS41 KOKX 250755
MTRMTP
METAR KMTP 250754Z AUTO 22009G18KT 14/13 A2980 RMK AO1 SLP091
T01440133





000
SAUS41 KOKX 250752
MTRNYC
METAR KNYC 250751Z AUTO 24004KT 10SM CLR 19/13 A2980 RMK AO2 SLP082
T01890133 $





000
SAUS41 KOKX 250655
MTRMTP
METAR KMTP 250654Z AUTO 22010G19KT 14/14 A2980 RMK AO1 SLP090
T01440139





000
SAUS41 KOKX 250652
MTRNYC
METAR KNYC 250651Z AUTO 00000KT 10SM CLR 19/13 A2977 RMK AO2 SLP073
T01940133 $





000
SAUS41 KOKX 250555
MTRMTP
METAR KMTP 250554Z AUTO 22011G22KT 15/14 A2979 RMK AO1 SLP088
T01500144 10156 20144 53014





000
SAUS41 KOKX 250553
MTRNYC
METAR KNYC 250551Z AUTO VRB03KT 10SM CLR 19/13 A2977 RMK AO2 SLP073
T01940133 10200 20178 53008 $





000
SAUS41 KOKX 250455
MTRMTP
METAR KMTP 250454Z AUTO 22011G19KT 15/14 A2975 RMK AO1 PK WND
22026/0433 SLP074 T01500144 401670128





000
SAUS41 KOKX 250453
MTRNYC
METAR KNYC 250451Z AUTO VRB06KT 10SM CLR 19/13 A2976 RMK AO2 SLP069
T01940133 402060117 $





000
SAUS41 KOKX 250355
MTRMTP
METAR KMTP 250354Z AUTO 22013G23KT 16/14 A2976 RMK AO1 SLP077
T01560144





000
SAUS41 KOKX 250355
MTRMTP
METAR KMTP 250354Z AUTO 22013G23KT 16/14 A2976 RMK AO1 SLP077
T01560144





000
SAUS41 KOKX 250352
MTRNYC
METAR KNYC 250351Z AUTO 10SM CLR 19/14 A2976 RMK AO2 PRESRR SLP068
T01890139 $





000
SAUS41 KOKX 250255
MTRMTP
METAR KMTP 250254Z AUTO 21012G18KT 15/14 A2975 RMK AO1 SLP075
T01500139 51008





000
SAUS41 KOKX 250252
MTRNYC
METAR KNYC 250251Z AUTO 24006KT 10SM CLR 19/13 A2975 RMK AO2 SLP065
T01890133 53017 $





000
SAUS41 KOKX 250155
MTRMTP
METAR KMTP 250154Z AUTO 20010G18KT 15/13 A2975 RMK AO1 SLP074
T01500133





000
SAUS41 KOKX 250152
MTRNYC
METAR KNYC 250151Z AUTO VRB04KT 10SM CLR 18/13 A2973 RMK AO2 SLP060
T01830128 $





000
SAUS41 KOKX 250055
MTRMTP
METAR KMTP 250054Z AUTO 22012G21KT 16/14 A2974 RMK AO1 SLP071
T01560139





000
SAUS41 KOKX 250053
MTRNYC
METAR KNYC 250051Z AUTO 18005KT 10SM CLR 18/12 A2971 RMK AO2 SLP050
T01830122 $





000
SAUS41 KOKX 242355
MTRMTP
METAR KMTP 242354Z AUTO 21011G22KT 15/14 A2973 RMK AO1 SLP066
T01500139 10167 20144 53017





000
SAUS41 KOKX 242352
MTRNYC
METAR KNYC 242351Z AUTO VRB04KT 10SM CLR 19/12 A2970 RMK AO2 SLP048
T01890122 10206 20183 51030 $





000
SAUS41 KOKX 242255
MTRMTP
METAR KMTP 242254Z AUTO 19010G19KT 14/13 A2970 RMK AO1 SLP057
T01440133





000
SAUS41 KOKX 242252
MTRNYC
METAR KNYC 242251Z AUTO 10SM CLR 19/12 A2968 RMK AO2 SLP041
T01940122 $





000
SAUS41 KOKX 242155
MTRMTP
METAR KMTP 242154Z AUTO 20013G24KT 15/14 A2968 RMK AO1 SLP051
T01500139





000
SAUS41 KOKX 242152
MTRNYC
METAR KNYC 242151Z AUTO 10SM CLR 19/12 A2965 RMK AO2 SLP030
T01940122 $





000
SAUS41 KOKX 242152
MTRNYC
METAR KNYC 242151Z AUTO 10SM CLR 19/12 A2965 RMK AO2 SLP030
T01940122 $





000
SAUS41 KOKX 242055
MTRMTP
METAR KMTP 242054Z AUTO 20009G18KT 16/14 A2968 RMK AO1 SLP049
T01560144 56007





000
SAUS41 KOKX 242052
MTRNYC
METAR KNYC 242051Z AUTO VRB03KT 10SM FEW041 19/12 A2961 RMK AO2
SLP018 T01940122 55005 $





000
SAUS41 KOKX 241955
MTRMTP
METAR KMTP 241954Z AUTO 18010G20KT 16/14 A2968 RMK AO1 SLP050
T01610144





000
SAUS41 KOKX 241952
MTRNYC
METAR KNYC 241951Z AUTO VRB05KT 10SM CLR 18/13 A2960 RMK AO2 SLP013
T01830133 $





000
SAUS41 KOKX 241855
MTRMTP
METAR KMTP 241854Z AUTO 19011G23KT 17/15 A2969 RMK AO1 SLP052
T01670150





000
SAUS41 KOKX 241853
MTRNYC
METAR KNYC 241851Z AUTO 17006KT 10SM CLR 21/14 A2960 RMK AO2 SLP015
T02060139 $





000
SAUS41 KOKX 241755
MTRMTP
METAR KMTP 241754Z AUTO 18011G21KT 16/15 A2970 RMK AO1 SLP057 60026
T01610150 10167 20144 57018





000
SAUS41 KOKX 241752
MTRNYC
METAR KNYC 241751Z AUTO 16004KT 10SM BKN030 OVC036 20/15 A2963 RMK
AO2 SLP023 60002 T02000150 10200 20156 58027 $





000
SAUS41 KOKX 241725
MTRNYC
SPECI KNYC 241724Z AUTO 17004KT 10SM BKN031 OVC037 20/15 A2964 RMK
AO2 T02000150 $





000
SAUS41 KOKX 241713
MTRNYC
SPECI KNYC 241711Z AUTO 17006KT 10SM BKN029 OVC039 19/15 A2964 RMK
AO2 T01940150 $





000
SAUS41 KOKX 241655
MTRMTP
METAR KMTP 241654Z AUTO 19013G23KT 17/16 A2971 RMK AO1 PK WND
20026/1629 SLP061 T01670156





000
SAUS41 KOKX 241653 COR
MTRNYC
METAR KNYC 241651Z AUTO VRB03KT 10SM FEW027 BKN038 OVC045 19/15
A2965 RMK AO2 SLP032 T01940150 $





000
SAUS41 KOKX 241555
MTRMTP
METAR KMTP 241554Z AUTO 18013G23KT 17/16 A2974 RMK AO1 PK WND
18026/1505 SLP070 P0002 T01670156





000
SAUS41 KOKX 241552
MTRNYC
METAR KNYC 241551Z AUTO VRB03KT 10SM FEW024 OVC044 18/16 A2968 RMK
AO2 SLP042 T01830156 $





000
SAUS41 KOKX 241525
MTRNYC
SPECI KNYC 241524Z AUTO VRB04KT 9SM SCT014 SCT020 OVC050 18/15 A2970
RMK AO2 T01780150 $





000
SAUS41 KOKX 241455
MTRMTP
METAR KMTP 241454Z AUTO 17013G24KT 16/14 A2975 RMK AO1 PK WND
18030/1442 SLP074 P0005 60024 T01560144 58018





000
SAUS41 KOKX 241452
MTRNYC
METAR KNYC 241451Z AUTO VRB04KT 10SM OVC014 17/16 A2971 RMK AO2
SLP050 60002 T01720156 56010 $





000
SAUS41 KOKX 241402
MTRNYC
SPECI KNYC 241401Z AUTO 18003KT 10SM OVC010 17/16 A2971 RMK AO2 CIG
008V015 T01720156 $





000
SAUS41 KOKX 241355
MTRMTP
METAR KMTP 241354Z AUTO 16012G21KT 15/14 A2977 RMK AO1 SLP080 P0013
T01500144





000
SAUS41 KOKX 241353
MTRNYC
METAR KNYC 241351Z AUTO VRB03KT 9SM OVC008 17/15 A2972 RMK AO2
RAB1252E01 CIG 007V011 SLP053 P0001 T01670150 $





000
SAUS41 KOKX 241255
MTRMTP
METAR KMTP 241254Z AUTO 16012G23KT 14/14 A2980 RMK AO1 PK WND
16026/1156 SLP089 P0006 T01440139





000
SAUS41 KOKX 241252
MTRNYC
METAR KNYC 241251Z AUTO 17007G18KT 010V200 7SM OVC007 16/14 A2971
RMK AO2 RAB33E43 CIG 006V011 SLP052 P0001 T01610144 $





000
SAUS41 KOKX 241155
MTRMTP
METAR KMTP 241154Z AUTO 14014G25KT 14/14 A2980 RMK AO1 PK WND
15029/1129 PRESFR SLP092 P0021 60038 70038 T01440139 10144 20128
58046





000
SAUS41 KOKX 241152
MTRNYC
METAR KNYC 241151Z AUTO 18007KT 160V240 7SM OVC006 16/14 A2974 RMK
AO2 PK WND 17027/1053 RAE40 SLP060 P0002 60067 70068 T01560144 10161
20117 55022 $





000
SAUS41 KOKX 241055
MTRMTP
METAR KMTP 241054Z AUTO 14012G25KT 14/13 A2987 RMK AO1 SLP114 P0015
T01440128





000
SAUS41 KOKX 241053
MTRNYC
METAR KNYC 241051Z AUTO 4SM -RA BR OVC006 16/14 A2973 RMK AO2 SLP059
P0003 T01610144 $





000
SAUS41 KOKX 240955
MTRMTP
METAR KMTP 240954Z AUTO 14010G20KT 14/13 A2989 RMK AO1 SLP122 P0001
T01440128





000
SAUS41 KOKX 240955
MTRMTP
METAR KMTP 240954Z AUTO 14010G20KT 14/13 A2989 RMK AO1 SLP122 P0001
T01440128





000
SAUS41 KOKX 240953
MTRNYC
METAR KNYC 240951Z AUTO 20009G20KT 150V270 6SM -RA BR OVC006 16/14
A2976 RMK AO2 SLP067 P0021 T01610144 $





000
SAUS41 KOKX 240953
MTRNYC
METAR KNYC 240951Z AUTO 20009G20KT 150V270 6SM -RA BR OVC006 16/14
A2976 RMK AO2 SLP067 P0021 T01610144 $





000
SAUS41 KOKX 240934
MTRNYC
SPECI KNYC 240932Z AUTO VRB06KT 5SM -RA BR OVC006 16/14 A2976 RMK
AO2 P0019 T01560139 $





000
SAUS41 KOKX 240921
MTRNYC
SPECI KNYC 240920Z AUTO 18008KT 2SM RA BR OVC006 16/14 A2978 RMK AO2
VIS 1 1/4V3 P0017 T01560139 $





000
SAUS41 KOKX 240855
MTRMTP
METAR KMTP 240854Z AUTO 13008G16KT 14/13 A2994 RMK AO1 SLP138 P0001
60001 T01440128 58038





000
SAUS41 KOKX 240852
MTRNYC
METAR KNYC 240851Z AUTO 1 3/4SM RA BR OVC006 15/14 A2980 RMK AO2
SLP082 P0023 60041 T01500139 58040 $





000
SAUS41 KOKX 240841
MTRNYC
SPECI KNYC 240840Z AUTO 2SM RA BR OVC006 15/13 A2980 RMK AO2 P0018
T01500133 $





000
SAUS41 KOKX 240830
MTRNYC
SPECI KNYC 240829Z AUTO VRB05KT 1 3/4SM RA BR OVC006 14/13 A2981 RMK
AO2 P0014 T01440133 $





000
SAUS41 KOKX 240755
MTRMTP
METAR KMTP 240754Z AUTO 13008G16KT 100V160 14/12 A2999 RMK AO1
SLP154 T01440122





000
SAUS41 KOKX 240753
MTRNYC
METAR KNYC 240751Z AUTO VRB06KT 2 1/2SM RA BR OVC005 14/13 A2986 RMK
AO2 RAB0655 PRESFR SLP102 P0016 T01390128 $





000
SAUS41 KOKX 240748
MTRNYC
SPECI KNYC 240747Z AUTO 2SM RA BR OVC005 13/12 A2987 RMK AO2 RAB0655
PRESFR P0015 $





000
SAUS41 KOKX 240710
MTRNYC
SPECI KNYC 240709Z AUTO VRB04KT 1 1/2SM -RA BR BKN007 OVC012 12/10
A2990 RMK AO2 RAB0655 P0001 T01170100 $





000
SAUS41 KOKX 240700
MTRNYC
SPECI KNYC 240659Z AUTO 07004KT 1 3/4SM -RA BR BKN010 BKN014 OVC023
12/10 A2991 RMK AO2 RAB55 CIG 006V012 P0000 T01170100 $





000
SAUS41 KOKX 240655
MTRMTP
METAR KMTP 240654Z AUTO VRB06KT 14/12 A3002 RMK AO1 SLP165 T01390117





000
SAUS41 KOKX 240652
MTRNYC
METAR KNYC 240651Z AUTO 00000KT 3SM BR BKN013 OVC025 12/10 A2992 RMK
AO2 RAE0559B15E45 SLP122 P0002 T01170100 $





000
SAUS41 KOKX 240648
MTRNYC
SPECI KNYC 240646Z AUTO 06003KT 3SM BR SCT013 OVC025 12/10 A2992 RMK
AO2 RAE0559B15E45 P0002 $





000
SAUS41 KOKX 240629
MTRNYC
SPECI KNYC 240628Z AUTO 07004KT 2 1/2SM -RA BR SCT011 OVC028 12/10
A2994 RMK AO2 RAE0559B15 P0001 T01170100 $





000
SAUS41 KOKX 240613
MTRNYC
SPECI KNYC 240612Z AUTO 06004KT 4SM BR BKN013 OVC032 12/09 A2995 RMK
AO2 RAE0559 P0000 T01170094 $





000
SAUS41 KOKX 240555
MTRNYC
SPECI KNYC 240554Z AUTO 07004KT 3SM -RA BR BKN015 OVC022 12/09 A2996
RMK AO2 PRESFR P0000 T01170094 $





000
SAUS41 KOKX 240555
MTRMTP
METAR KMTP 240554Z AUTO 13005KT 13/11 A3005 RMK AO1 SLP175 T01280111
10133 20083 56031





000
SAUS41 KOKX 240553
MTRNYC
METAR KNYC 240551Z AUTO 08004KT 2 1/2SM -RA BR BKN013 OVC024 12/09
A2996 RMK AO2 RAB40 PRESFR SLP138 P0001 60001 T01170094 10128 20111
58042 $





000
SAUS41 KOKX 240548
MTRNYC
SPECI KNYC 240547Z AUTO VRB03KT 2 1/2SM -RA BKN013 OVC024 12/09
A2997 RMK AO2 RAB40 P0000 $





000
SAUS41 KOKX 240504
MTRNYC
SPECI KNYC 240503Z AUTO VRB03KT 9SM OVC029 12/09 A3001 RMK AO2
T01220089 $





000
SAUS41 KOKX 240455
MTRMTP
METAR KMTP 240454Z AUTO 13003KT 13/12 A3008 RMK AO1 SLP185 T01280117
401330078





000
SAUS41 KOKX 240452
MTRNYC
METAR KNYC 240451Z AUTO 10003KT 9SM OVC030 12/09 A3002 RMK AO2
SLP156 T01220094 401390061 $





000
SAUS41 KOKX 240355
MTRMTP
METAR KMTP 240354Z AUTO 00000KT 09/08 A3011 RMK AO1 SLP196 T00940078





000
SAUS41 KOKX 240355
MTRMTP
METAR KMTP 240354Z AUTO 00000KT 09/08 A3011 RMK AO1 SLP196 T00940078





000
SAUS41 KOKX 240352
MTRNYC
METAR KNYC 240351Z AUTO 18003KT 9SM OVC044 12/08 A3005 RMK AO2
SLP169 T01220083 $





000
SAUS41 KOKX 240255
MTRMTP
METAR KMTP 240254Z AUTO 00000KT 09/07 A3014 RMK AO1 SLP207 T00890072
58009





000
SAUS41 KOKX 240252
MTRNYC
METAR KNYC 240251Z AUTO 17003KT 10SM CLR 12/06 A3009 RMK AO2 SLP180
T01170061 58020 $





000
SAUS41 KOKX 240155
MTRMTP
METAR KMTP 240154Z AUTO 18004KT 11/08 A3016 RMK AO1 SLP212 T01110083





000
SAUS41 KOKX 240155
MTRMTP
METAR KMTP 240154Z AUTO 18004KT 11/08 A3016 RMK AO1 SLP212 T01110083





000
SAUS41 KOKX 240152
MTRNYC
METAR KNYC 240151Z AUTO 16003KT 10SM CLR 12/04 A3011 RMK AO2 SLP187
T01170044 $





000
SAUS41 KOKX 240055
MTRMTP
METAR KMTP 240054Z AUTO VRB04KT 11/07 A3016 RMK AO1 SLP214 T01060067





000
SAUS41 KOKX 240053
MTRNYC
METAR KNYC 240051Z AUTO 18003KT 10SM CLR 12/01 A3013 RMK AO2 SLP196
T01170006 $





    US Dept of Commerce
    National Oceanic and Atmospheric Administration
    National Weather Service
    1325 East West Highway
    Silver Spring, MD 20910
    Page Author: NWS Internet Services Team
Disclaimer
Information Quality
Credits
Glossary
Privacy Policy
Freedom of Information Act (FOIA)
About Us
Career Opportunities